Mantoloking, NJ (08738)

11:26 PM EDT on July 25, 2016 (GMT -0400)
Mantoloking Yacht Club | | Change Station

Elev 25 ft 40.04 °N, 74.05 °W | Updated 8 minutes ago

Rain
Rain
74.4 °F
Feels Like 72 °F
N
10.0
Wind Variable Wind from SSE
Gusts 13.0 mph

Today
High -- | Low -- °F
--% Chance of Precip.
Yesterday
High -- | Low -- °F
Precip. -- in
Pressure 29.92 in
Visibility 10.0 miles
Clouds Overcast 300 ft
Heat Index 72 °F
Dew Point 73 °F
Humidity 95%
Rainfall 25.43 in
Snow Depth Not available.
5:48 AM 8:16 PM
Waning Gibbous, 59% visible
METAR KBLM 260256Z AUTO 21007G15KT 10SM OVC003 23/22 A2991 RMK AO2 RAB02E17 SLP130 P0000 60009 T02280222 58001
Pressure 29.92 in
Visibility 10.0 miles
Clouds Overcast 300 ft
Heat Index 72 °F
Dew Point 73 °F
Humidity 95%
Rainfall 25.43 in
Snow Depth Not available.
5:48 AM 8:16 PM
Waning Gibbous, 59% visible
METAR KBLM 260256Z AUTO 21007G15KT 10SM OVC003 23/22 A2991 RMK AO2 RAB02E17 SLP130 P0000 60009 T02280222 58001
Record highs are possible for parts of the Northeast Monday and Tuesday, as parts of the central U.S. take a little breather from the worst of summer's dog day heat.

Expansive high pressure in the upper atmosphere will focus on parts of the East and West this week, sending heat indices well into the triple digits from the Mid-Atlantic states into the South.

10-Day Weather Forecast

Almanac

Astronomy

Jul. 25, 2016 Rise Set
Actual Time
Civil Twilight
Nautical Twilight
Astronomical Twilight
Moon
Length of Visible Light
Length of Day
Tomorrow will be .
, % of the Moon is Illuminated

Today's Extremes

State Highs State Lows

Community

WunderPhotos

Upload Photos

1,927,522 photos uploaded!

WunderBlog® & News

Nearby

Air Quality

  Air Quality AQ Index Pollutant
Not available.

Snow Depth

Station Depth Elevation

Earthquake Activity

City Distance Mag. Time & Date
Minimum magnitude displayed is 2.5.

Coastal Water Temperatures

Place Temperature

Stations

Nearby Weather Stations

Station Location Temp. Windchill Dew Point Humidity Wind Precip. Elev Updated Type
                   

Watches & Warnings

There are currently no watches in effect.